sensor_id;sensor_type;location;lat;lon;timestamp;temperature;humidity
10702;DHT22;5402;50.004;8.246;2023-03-01T00:00:02;1.00;99.90
10702;DHT22;5402;50.004;8.246;2023-03-01T00:02:29;0.90;99.90
10702;DHT22;5402;50.004;8.246;2023-03-01T00:04:56;0.90;99.90
10702;DHT22;5402;50.004;8.246;2023-03-01T00:07:23;0.90;99.90
10702;DHT22;5402;50.004;8.246;2023-03-01T00:09:50;0.90;99.90
10702;DHT22;5402;50.004;8.246;2023-03-01T00:12:18;1.00;99.90
10702;DHT22;5402;50.004;8.246;2023-03-01T00:14:45;0.90;99.90
10702;DHT22;5402;50.004;8.246;2023-03-01T00:17:11;0.90;99.90
10702;DHT22;5402;50.004;8.246;2023-03-01T00:19:38;0.90;99.90
10702;DHT22;5402;50.004;8.246;2023-03-01T00:22:05;0.80;99.90
10702;DHT22;5402;50.004;8.246;2023-03-01T00:24:33;0.90;99.90
10702;DHT22;5402;50.004;8.246;2023-03-01T00:27:00;0.90;99.90
10702;DHT22;5402;50.004;8.246;2023-03-01T00:29:28;0.90;99.90
10702;DHT22;5402;50.004;8.246;2023-03-01T00:31:55;0.90;99.90
10702;DHT22;5402;50.004;8.246;2023-03-01T00:34:22;0.90;99.90
10702;DHT22;5402;50.004;8.246;2023-03-01T00:36:48;0.80;99.90
10702;DHT22;5402;50.004;8.246;2023-03-01T00:39:15;0.80;99.90
10702;DHT22;5402;50.004;8.246;2023-03-01T00:41:42;0.80;99.90
10702;DHT22;5402;50.004;8.246;2023-03-01T00:44:10;0.80;99.90
10702;DHT22;5402;50.004;8.246;2023-03-01T00:46:40;0.80;99.90
10702;DHT22;5402;50.004;8.246;2023-03-01T00:49:07;0.80;99.90
10702;DHT22;5402;50.004;8.246;2023-03-01T00:51:34;0.80;99.90
10702;DHT22;5402;50.004;8.246;2023-03-01T00:54:01;0.80;99.90
10702;DHT22;5402;50.004;8.246;2023-03-01T00:56:29;0.80;99.90
10702;DHT22;5402;50.004;8.246;2023-03-01T00:58:56;0.80;99.90
10702;DHT22;5402;50.004;8.246;2023-03-01T01:01:24;0.70;99.90
10702;DHT22;5402;50.004;8.246;2023-03-01T01:03:55;0.80;99.90
10702;DHT22;5402;50.004;8.246;2023-03-01T01:06:24;0.80;99.90
10702;DHT22;5402;50.004;8.246;2023-03-01T01:08:52;0.70;99.90
10702;DHT22;5402;50.004;8.246;2023-03-01T01:11:20;0.80;99.90
10702;DHT22;5402;50.004;8.246;2023-03-01T01:13:48;0.80;99.90
10702;DHT22;5402;50.004;8.246;2023-03-01T01:16:16;0.90;99.90
10702;DHT22;5402;50.004;8.246;2023-03-01T01:18:43;0.80;99.90
10702;DHT22;5402;50.004;8.246;2023-03-01T01:21:13;0.70;99.90
10702;DHT22;5402;50.004;8.246;2023-03-01T01:23:41;0.70;99.90
10702;DHT22;5402;50.004;8.246;2023-03-01T01:26:11;0.70;99.90
10702;DHT22;5402;50.004;8.246;2023-03-01T01:28:38;0.70;99.90
10702;DHT22;5402;50.004;8.246;2023-03-01T01:31:05;0.60;99.90
10702;DHT22;5402;50.004;8.246;2023-03-01T01:33:33;0.60;99.90
10702;DHT22;5402;50.004;8.246;2023-03-01T01:35:59;0.50;99.90
10702;DHT22;5402;50.004;8.246;2023-03-01T01:38:28;0.40;99.90
10702;DHT22;5402;50.004;8.246;2023-03-01T01:40:54;0.30;99.90
10702;DHT22;5402;50.004;8.246;2023-03-01T01:43:23;0.30;99.90
10702;DHT22;5402;50.004;8.246;2023-03-01T01:45:52;0.20;99.90
10702;DHT22;5402;50.004;8.246;2023-03-01T01:48:24;0.20;99.90
10702;DHT22;5402;50.004;8.246;2023-03-01T01:51:07;0.20;99.90
10702;DHT22;5402;50.004;8.246;2023-03-01T01:53:38;0.30;99.90
10702;DHT22;5402;50.004;8.246;2023-03-01T01:56:07;0.30;99.90
10702;DHT22;5402;50.004;8.246;2023-03-01T01:58:36;0.30;99.90
10702;DHT22;5402;50.004;8.246;2023-03-01T02:01:04;0.30;99.90
10702;DHT22;5402;50.004;8.246;2023-03-01T02:03:33;0.30;99.90
10702;DHT22;5402;50.004;8.246;2023-03-01T02:06:04;0.30;99.90
10702;DHT22;5402;50.004;8.246;2023-03-01T02:08:36;0.30;99.90
10702;DHT22;5402;50.004;8.246;2023-03-01T02:11:05;0.40;99.90
10702;DHT22;5402;50.004;8.246;2023-03-01T02:13:33;0.40;99.90
10702;DHT22;5402;50.004;8.246;2023-03-01T02:16:03;0.50;99.90
10702;DHT22;5402;50.004;8.246;2023-03-01T02:18:30;0.50;99.90
10702;DHT22;5402;50.004;8.246;2023-03-01T02:21:08;0.60;99.90
10702;DHT22;5402;50.004;8.246;2023-03-01T02:23:42;0.60;99.90
10702;DHT22;5402;50.004;8.246;2023-03-01T02:26:14;0.60;99.90
10702;DHT22;5402;50.004;8.246;2023-03-01T02:28:46;0.60;99.90
10702;DHT22;5402;50.004;8.246;2023-03-01T02:31:16;0.60;99.90
10702;DHT22;5402;50.004;8.246;2023-03-01T02:34:02;0.60;99.90
10702;DHT22;5402;50.004;8.246;2023-03-01T02:36:31;0.60;99.90
10702;DHT22;5402;50.004;8.246;2023-03-01T02:39:05;0.60;99.90
10702;DHT22;5402;50.004;8.246;2023-03-01T02:41:36;0.60;99.90
10702;DHT22;5402;50.004;8.246;2023-03-01T02:44:05;0.70;99.90
10702;DHT22;5402;50.004;8.246;2023-03-01T02:46:32;0.80;99.90
10702;DHT22;5402;50.004;8.246;2023-03-01T02:48:59;0.80;99.90
10702;DHT22;5402;50.004;8.246;2023-03-01T02:51:45;0.90;99.90
10702;DHT22;5402;50.004;8.246;2023-03-01T02:54:20;0.90;99.90
10702;DHT22;5402;50.004;8.246;2023-03-01T02:56:49;0.80;99.90
10702;DHT22;5402;50.004;8.246;2023-03-01T02:59:19;0.80;99.90
10702;DHT22;5402;50.004;8.246;2023-03-01T03:01:46;0.80;99.90
10702;DHT22;5402;50.004;8.246;2023-03-01T03:04:15;0.80;99.90
10702;DHT22;5402;50.004;8.246;2023-03-01T03:06:43;0.80;99.90
10702;DHT22;5402;50.004;8.246;2023-03-01T03:09:10;0.80;99.90
10702;DHT22;5402;50.004;8.246;2023-03-01T03:11:37;0.80;99.90
10702;DHT22;5402;50.004;8.246;2023-03-01T03:14:05;0.80;99.90
10702;DHT22;5402;50.004;8.246;2023-03-01T03:16:40;0.80;99.90
10702;DHT22;5402;50.004;8.246;2023-03-01T03:19:06;0.80;99.90
10702;DHT22;5402;50.004;8.246;2023-03-01T03:21:34;0.90;99.90
10702;DHT22;5402;50.004;8.246;2023-03-01T03:24:01;0.90;99.90
10702;DHT22;5402;50.004;8.246;2023-03-01T03:26:28;0.90;99.90
10702;DHT22;5402;50.004;8.246;2023-03-01T03:28:55;0.90;99.90
10702;DHT22;5402;50.004;8.246;2023-03-01T03:31:22;0.90;99.90
10702;DHT22;5402;50.004;8.246;2023-03-01T03:33:50;0.90;99.90
10702;DHT22;5402;50.004;8.246;2023-03-01T03:36:19;0.90;99.90
10702;DHT22;5402;50.004;8.246;2023-03-01T03:38:46;0.80;99.90
10702;DHT22;5402;50.004;8.246;2023-03-01T03:41:14;0.80;99.90
10702;DHT22;5402;50.004;8.246;2023-03-01T03:43:43;0.80;99.90
10702;DHT22;5402;50.004;8.246;2023-03-01T03:46:11;0.80;99.90
10702;DHT22;5402;50.004;8.246;2023-03-01T03:48:41;0.80;99.90
10702;DHT22;5402;50.004;8.246;2023-03-01T03:51:12;0.70;99.90
10702;DHT22;5402;50.004;8.246;2023-03-01T03:53:39;0.80;99.90
10702;DHT22;5402;50.004;8.246;2023-03-01T03:56:07;0.80;99.90
10702;DHT22;5402;50.004;8.246;2023-03-01T03:58:34;0.70;99.90
10702;DHT22;5402;50.004;8.246;2023-03-01T04:01:01;0.70;99.90
10702;DHT22;5402;50.004;8.246;2023-03-01T04:03:29;0.70;99.90
10702;DHT22;5402;50.004;8.246;2023-03-01T04:05:57;0.70;99.90
10702;DHT22;5402;50.004;8.246;2023-03-01T04:08:26;0.70;99.90
10702;DHT22;5402;50.004;8.246;2023-03-01T04:10:58;0.70;99.90
10702;DHT22;5402;50.004;8.246;2023-03-01T04:13:25;0.80;99.90
10702;DHT22;5402;50.004;8.246;2023-03-01T04:15:53;0.80;99.90
10702;DHT22;5402;50.004;8.246;2023-03-01T04:18:23;0.80;99.90
10702;DHT22;5402;50.004;8.246;2023-03-01T04:20:50;0.80;99.90
10702;DHT22;5402;50.004;8.246;2023-03-01T04:23:21;0.80;99.90
10702;DHT22;5402;50.004;8.246;2023-03-01T04:25:52;0.80;99.90
10702;DHT22;5402;50.004;8.246;2023-03-01T04:28:21;0.70;99.90
10702;DHT22;5402;50.004;8.246;2023-03-01T04:30:50;0.70;99.90
10702;DHT22;5402;50.004;8.246;2023-03-01T04:33:17;0.70;99.90
10702;DHT22;5402;50.004;8.246;2023-03-01T04:35:44;0.80;99.90
10702;DHT22;5402;50.004;8.246;2023-03-01T04:38:11;0.80;99.90
10702;DHT22;5402;50.004;8.246;2023-03-01T04:40:39;0.80;99.90
10702;DHT22;5402;50.004;8.246;2023-03-01T04:43:10;0.70;99.90
10702;DHT22;5402;50.004;8.246;2023-03-01T04:45:37;0.70;99.90
10702;DHT22;5402;50.004;8.246;2023-03-01T04:48:04;0.60;99.90
10702;DHT22;5402;50.004;8.246;2023-03-01T04:50:31;0.60;99.90
10702;DHT22;5402;50.004;8.246;2023-03-01T04:52:58;0.60;99.90
10702;DHT22;5402;50.004;8.246;2023-03-01T04:55:26;0.60;99.90
10702;DHT22;5402;50.004;8.246;2023-03-01T04:57:53;0.70;99.90
10702;DHT22;5402;50.004;8.246;2023-03-01T05:00:22;0.70;99.90
10702;DHT22;5402;50.004;8.246;2023-03-01T05:02:50;0.60;99.90
10702;DHT22;5402;50.004;8.246;2023-03-01T05:05:21;0.60;99.90
10702;DHT22;5402;50.004;8.246;2023-03-01T05:07:51;0.60;99.90
10702;DHT22;5402;50.004;8.246;2023-03-01T05:10:18;0.50;99.90
10702;DHT22;5402;50.004;8.246;2023-03-01T05:12:45;0.60;99.90
10702;DHT22;5402;50.004;8.246;2023-03-01T05:15:12;0.50;99.90
10702;DHT22;5402;50.004;8.246;2023-03-01T05:17:40;0.60;99.90
10702;DHT22;5402;50.004;8.246;2023-03-01T05:20:09;0.60;99.90
10702;DHT22;5402;50.004;8.246;2023-03-01T05:22:36;0.50;99.90
10702;DHT22;5402;50.004;8.246;2023-03-01T05:25:04;0.60;99.90
10702;DHT22;5402;50.004;8.246;2023-03-01T05:27:30;0.60;99.90
10702;DHT22;5402;50.004;8.246;2023-03-01T05:29:57;0.60;99.90
10702;DHT22;5402;50.004;8.246;2023-03-01T05:32:24;0.60;99.90
10702;DHT22;5402;50.004;8.246;2023-03-01T05:34:53;0.50;99.90
10702;DHT22;5402;50.004;8.246;2023-03-01T05:37:20;0.50;99.90
10702;DHT22;5402;50.004;8.246;2023-03-01T05:39:47;0.50;99.90
10702;DHT22;5402;50.004;8.246;2023-03-01T05:42:15;0.40;99.90
10702;DHT22;5402;50.004;8.246;2023-03-01T05:44:42;0.40;99.90
10702;DHT22;5402;50.004;8.246;2023-03-01T05:47:09;0.40;99.90
10702;DHT22;5402;50.004;8.246;2023-03-01T05:49:35;0.40;99.90
10702;DHT22;5402;50.004;8.246;2023-03-01T05:52:04;0.40;99.90
10702;DHT22;5402;50.004;8.246;2023-03-01T05:54:30;0.40;99.90
10702;DHT22;5402;50.004;8.246;2023-03-01T05:56:57;0.40;99.90
10702;DHT22;5402;50.004;8.246;2023-03-01T05:59:24;0.40;99.90
10702;DHT22;5402;50.004;8.246;2023-03-01T06:01:50;0.40;99.90
10702;DHT22;5402;50.004;8.246;2023-03-01T06:04:17;0.40;99.90
10702;DHT22;5402;50.004;8.246;2023-03-01T06:06:44;0.40;99.90
10702;DHT22;5402;50.004;8.246;2023-03-01T06:09:12;0.40;99.90
10702;DHT22;5402;50.004;8.246;2023-03-01T06:11:40;0.50;99.90
10702;DHT22;5402;50.004;8.246;2023-03-01T06:14:07;0.50;99.90
10702;DHT22;5402;50.004;8.246;2023-03-01T06:16:35;0.50;99.90
10702;DHT22;5402;50.004;8.246;2023-03-01T06:19:05;0.60;99.90
10702;DHT22;5402;50.004;8.246;2023-03-01T06:21:31;0.60;99.90
10702;DHT22;5402;50.004;8.246;2023-03-01T06:23:58;0.70;99.90
10702;DHT22;5402;50.004;8.246;2023-03-01T06:26:26;0.70;99.90
10702;DHT22;5402;50.004;8.246;2023-03-01T06:28:54;0.80;99.90
10702;DHT22;5402;50.004;8.246;2023-03-01T06:31:21;0.80;99.90
10702;DHT22;5402;50.004;8.246;2023-03-01T06:33:47;0.90;99.90
10702;DHT22;5402;50.004;8.246;2023-03-01T06:36:14;0.90;99.90
10702;DHT22;5402;50.004;8.246;2023-03-01T06:38:44;1.00;99.90
10702;DHT22;5402;50.004;8.246;2023-03-01T06:41:10;1.10;99.90
10702;DHT22;5402;50.004;8.246;2023-03-01T06:43:38;1.20;99.90
10702;DHT22;5402;50.004;8.246;2023-03-01T06:46:05;1.20;99.90
10702;DHT22;5402;50.004;8.246;2023-03-01T06:48:33;1.30;99.90
10702;DHT22;5402;50.004;8.246;2023-03-01T06:51:00;1.40;99.90
10702;DHT22;5402;50.004;8.246;2023-03-01T06:53:27;1.40;99.90
10702;DHT22;5402;50.004;8.246;2023-03-01T06:55:55;1.50;99.90
10702;DHT22;5402;50.004;8.246;2023-03-01T06:58:21;1.60;99.90
10702;DHT22;5402;50.004;8.246;2023-03-01T07:00:50;1.60;99.90
10702;DHT22;5402;50.004;8.246;2023-03-01T07:03:16;1.60;99.90
10702;DHT22;5402;50.004;8.246;2023-03-01T07:05:43;1.60;99.90
10702;DHT22;5402;50.004;8.246;2023-03-01T07:08:10;1.70;99.90
10702;DHT22;5402;50.004;8.246;2023-03-01T07:10:37;1.70;99.90
10702;DHT22;5402;50.004;8.246;2023-03-01T07:13:04;1.80;99.90
10702;DHT22;5402;50.004;8.246;2023-03-01T07:15:32;1.80;99.90
10702;DHT22;5402;50.004;8.246;2023-03-01T07:18:00;2.20;99.90
10702;DHT22;5402;50.004;8.246;2023-03-01T07:20:27;1.80;99.90
10702;DHT22;5402;50.004;8.246;2023-03-01T07:22:55;1.80;99.90
10702;DHT22;5402;50.004;8.246;2023-03-01T07:25:23;1.80;99.90
10702;DHT22;5402;50.004;8.246;2023-03-01T07:27:51;1.80;99.90
10702;DHT22;5402;50.004;8.246;2023-03-01T07:30:18;1.90;99.90
10702;DHT22;5402;50.004;8.246;2023-03-01T07:32:45;1.90;99.90
10702;DHT22;5402;50.004;8.246;2023-03-01T07:35:13;1.90;99.90
10702;DHT22;5402;50.004;8.246;2023-03-01T07:37:41;1.90;99.90
10702;DHT22;5402;50.004;8.246;2023-03-01T07:40:09;1.90;99.90
10702;DHT22;5402;50.004;8.246;2023-03-01T07:42:36;2.00;99.90
10702;DHT22;5402;50.004;8.246;2023-03-01T07:45:03;2.00;99.90
10702;DHT22;5402;50.004;8.246;2023-03-01T07:47:30;2.00;99.90
10702;DHT22;5402;50.004;8.246;2023-03-01T07:49:57;2.10;99.90
10702;DHT22;5402;50.004;8.246;2023-03-01T07:52:25;2.10;99.90
10702;DHT22;5402;50.004;8.246;2023-03-01T07:54:52;2.20;99.90
10702;DHT22;5402;50.004;8.246;2023-03-01T07:57:19;2.30;99.90
10702;DHT22;5402;50.004;8.246;2023-03-01T07:59:47;2.40;99.90
10702;DHT22;5402;50.004;8.246;2023-03-01T08:02:14;2.40;99.90
10702;DHT22;5402;50.004;8.246;2023-03-01T08:04:41;2.50;99.90
10702;DHT22;5402;50.004;8.246;2023-03-01T08:07:08;2.50;99.90
10702;DHT22;5402;50.004;8.246;2023-03-01T08:09:36;2.50;99.90
10702;DHT22;5402;50.004;8.246;2023-03-01T08:12:05;2.60;99.90
10702;DHT22;5402;50.004;8.246;2023-03-01T08:14:32;2.60;99.90
10702;DHT22;5402;50.004;8.246;2023-03-01T08:16:59;2.70;99.90
10702;DHT22;5402;50.004;8.246;2023-03-01T08:19:28;3.70;99.90
10702;DHT22;5402;50.004;8.246;2023-03-01T08:21:55;2.80;99.90
10702;DHT22;5402;50.004;8.246;2023-03-01T08:24:23;2.90;99.90
10702;DHT22;5402;50.004;8.246;2023-03-01T08:26:52;2.80;99.90
10702;DHT22;5402;50.004;8.246;2023-03-01T08:29:19;3.00;99.90
10702;DHT22;5402;50.004;8.246;2023-03-01T08:31:45;3.00;99.90
10702;DHT22;5402;50.004;8.246;2023-03-01T08:34:15;3.00;99.90
10702;DHT22;5402;50.004;8.246;2023-03-01T08:36:43;3.10;99.90
10702;DHT22;5402;50.004;8.246;2023-03-01T08:39:12;3.10;99.90
10702;DHT22;5402;50.004;8.246;2023-03-01T08:41:39;3.20;99.90
10702;DHT22;5402;50.004;8.246;2023-03-01T08:44:10;3.20;99.90
10702;DHT22;5402;50.004;8.246;2023-03-01T08:46:39;3.30;99.90
10702;DHT22;5402;50.004;8.246;2023-03-01T08:49:07;3.30;99.90
10702;DHT22;5402;50.004;8.246;2023-03-01T08:51:35;3.40;99.90
10702;DHT22;5402;50.004;8.246;2023-03-01T08:54:03;3.50;99.90
10702;DHT22;5402;50.004;8.246;2023-03-01T08:56:31;3.60;99.90
10702;DHT22;5402;50.004;8.246;2023-03-01T08:58:59;3.70;99.90
10702;DHT22;5402;50.004;8.246;2023-03-01T09:01:27;3.80;99.90
10702;DHT22;5402;50.004;8.246;2023-03-01T09:03:54;3.80;99.90
10702;DHT22;5402;50.004;8.246;2023-03-01T09:06:20;3.90;99.90
10702;DHT22;5402;50.004;8.246;2023-03-01T09:08:48;4.00;99.90
10702;DHT22;5402;50.004;8.246;2023-03-01T09:11:17;4.10;99.90
10702;DHT22;5402;50.004;8.246;2023-03-01T09:13:44;4.20;99.90
10702;DHT22;5402;50.004;8.246;2023-03-01T09:16:13;4.30;99.90
10702;DHT22;5402;50.004;8.246;2023-03-01T09:18:41;4.20;99.90
10702;DHT22;5402;50.004;8.246;2023-03-01T09:21:09;4.20;99.90
10702;DHT22;5402;50.004;8.246;2023-03-01T09:23:38;4.40;99.90
10702;DHT22;5402;50.004;8.246;2023-03-01T09:26:06;4.50;99.90
10702;DHT22;5402;50.004;8.246;2023-03-01T09:28:34;4.70;99.90
10702;DHT22;5402;50.004;8.246;2023-03-01T09:31:02;5.40;99.90
10702;DHT22;5402;50.004;8.246;2023-03-01T09:33:30;4.90;99.90
10702;DHT22;5402;50.004;8.246;2023-03-01T09:35:59;5.00;99.90
10702;DHT22;5402;50.004;8.246;2023-03-01T09:38:26;5.00;99.90
10702;DHT22;5402;50.004;8.246;2023-03-01T09:40:53;4.90;99.90
10702;DHT22;5402;50.004;8.246;2023-03-01T09:43:25;5.10;99.90
10702;DHT22;5402;50.004;8.246;2023-03-01T09:45:56;5.00;99.90
10702;DHT22;5402;50.004;8.246;2023-03-01T09:48:30;5.10;99.90
10702;DHT22;5402;50.004;8.246;2023-03-01T09:51:03;5.30;99.90
10702;DHT22;5402;50.004;8.246;2023-03-01T09:53:33;5.40;99.90
10702;DHT22;5402;50.004;8.246;2023-03-01T09:56:04;5.20;99.90
10702;DHT22;5402;50.004;8.246;2023-03-01T09:58:37;5.10;99.90
10702;DHT22;5402;50.004;8.246;2023-03-01T10:01:25;5.30;99.90
10702;DHT22;5402;50.004;8.246;2023-03-01T10:04:19;5.40;99.90
10702;DHT22;5402;50.004;8.246;2023-03-01T10:06:59;5.40;99.90
10702;DHT22;5402;50.004;8.246;2023-03-01T10:09:29;5.50;99.90
10702;DHT22;5402;50.004;8.246;2023-03-01T10:12:02;5.50;99.90
10702;DHT22;5402;50.004;8.246;2023-03-01T10:14:34;5.50;99.90
10702;DHT22;5402;50.004;8.246;2023-03-01T10:17:03;5.40;99.90
10702;DHT22;5402;50.004;8.246;2023-03-01T10:19:36;5.40;99.90
10702;DHT22;5402;50.004;8.246;2023-03-01T10:22:16;5.40;99.90
10702;DHT22;5402;50.004;8.246;2023-03-01T10:24:47;5.50;99.90
10702;DHT22;5402;50.004;8.246;2023-03-01T10:27:19;5.60;99.90
10702;DHT22;5402;50.004;8.246;2023-03-01T10:29:53;5.60;99.90
10702;DHT22;5402;50.004;8.246;2023-03-01T10:32:20;5.40;99.90
10702;DHT22;5402;50.004;8.246;2023-03-01T10:34:47;5.50;99.90
10702;DHT22;5402;50.004;8.246;2023-03-01T10:37:17;5.50;99.90
10702;DHT22;5402;50.004;8.246;2023-03-01T10:39:57;5.50;99.90
10702;DHT22;5402;50.004;8.246;2023-03-01T10:42:28;5.50;99.90
10702;DHT22;5402;50.004;8.246;2023-03-01T10:44:55;5.60;99.90
10702;DHT22;5402;50.004;8.246;2023-03-01T10:47:24;5.70;99.90
10702;DHT22;5402;50.004;8.246;2023-03-01T10:49:59;5.70;99.90
10702;DHT22;5402;50.004;8.246;2023-03-01T10:52:35;5.60;99.90
10702;DHT22;5402;50.004;8.246;2023-03-01T10:55:08;5.60;99.90
10702;DHT22;5402;50.004;8.246;2023-03-01T10:57:50;5.70;99.90
10702;DHT22;5402;50.004;8.246;2023-03-01T11:00:24;5.80;99.90
10702;DHT22;5402;50.004;8.246;2023-03-01T11:03:02;5.70;99.90
10702;DHT22;5402;50.004;8.246;2023-03-01T11:05:29;5.70;99.90
10702;DHT22;5402;50.004;8.246;2023-03-01T11:08:01;5.70;99.90
10702;DHT22;5402;50.004;8.246;2023-03-01T11:10:30;5.70;99.90
10702;DHT22;5402;50.004;8.246;2023-03-01T11:13:16;5.80;99.90
10702;DHT22;5402;50.004;8.246;2023-03-01T11:15:58;5.90;99.90
10702;DHT22;5402;50.004;8.246;2023-03-01T11:18:26;6.10;99.90
10702;DHT22;5402;50.004;8.246;2023-03-01T11:20:55;6.10;99.90
10702;DHT22;5402;50.004;8.246;2023-03-01T11:23:23;6.00;99.90
10702;DHT22;5402;50.004;8.246;2023-03-01T11:25:55;6.00;99.90
10702;DHT22;5402;50.004;8.246;2023-03-01T11:28:25;6.00;99.90
10702;DHT22;5402;50.004;8.246;2023-03-01T11:30:55;6.00;99.90
10702;DHT22;5402;50.004;8.246;2023-03-01T11:33:32;6.20;99.90
10702;DHT22;5402;50.004;8.246;2023-03-01T11:36:05;6.30;99.90
10702;DHT22;5402;50.004;8.246;2023-03-01T11:38:35;6.40;99.90
10702;DHT22;5402;50.004;8.246;2023-03-01T11:41:06;6.50;99.90
10702;DHT22;5402;50.004;8.246;2023-03-01T11:43:44;6.50;99.90
10702;DHT22;5402;50.004;8.246;2023-03-01T11:46:49;6.50;99.90
10702;DHT22;5402;50.004;8.246;2023-03-01T11:49:37;6.50;99.90
10702;DHT22;5402;50.004;8.246;2023-03-01T11:52:16;6.50;99.90
10702;DHT22;5402;50.004;8.246;2023-03-01T11:55:00;6.70;99.90
10702;DHT22;5402;50.004;8.246;2023-03-01T11:57:47;6.80;99.90
10702;DHT22;5402;50.004;8.246;2023-03-01T12:00:30;6.90;99.90
10702;DHT22;5402;50.004;8.246;2023-03-01T12:03:26;7.00;99.90
10702;DHT22;5402;50.004;8.246;2023-03-01T12:06:12;7.10;99.90
10702;DHT22;5402;50.004;8.246;2023-03-01T12:08:47;7.10;99.90
10702;DHT22;5402;50.004;8.246;2023-03-01T12:11:23;7.00;99.70
10702;DHT22;5402;50.004;8.246;2023-03-01T12:14:27;7.00;99.90
10702;DHT22;5402;50.004;8.246;2023-03-01T12:17:14;6.90;99.70
10702;DHT22;5402;50.004;8.246;2023-03-01T12:19:58;6.90;99.10
10702;DHT22;5402;50.004;8.246;2023-03-01T12:22:34;6.90;99.50
10702;DHT22;5402;50.004;8.246;2023-03-01T12:25:21;6.90;99.50
10702;DHT22;5402;50.004;8.246;2023-03-01T12:28:10;7.00;99.50
10702;DHT22;5402;50.004;8.246;2023-03-01T12:30:56;7.10;99.20
10702;DHT22;5402;50.004;8.246;2023-03-01T12:33:31;7.10;99.00
10702;DHT22;5402;50.004;8.246;2023-03-01T12:36:22;7.10;98.70
10702;DHT22;5402;50.004;8.246;2023-03-01T12:39:03;7.10;98.80
10702;DHT22;5402;50.004;8.246;2023-03-01T12:41:46;7.10;98.70
10702;DHT22;5402;50.004;8.246;2023-03-01T12:44:32;7.20;98.70
10702;DHT22;5402;50.004;8.246;2023-03-01T12:47:13;7.20;98.30
10702;DHT22;5402;50.004;8.246;2023-03-01T12:49:46;7.30;98.50
10702;DHT22;5402;50.004;8.246;2023-03-01T12:52:19;7.30;98.00
10702;DHT22;5402;50.004;8.246;2023-03-01T12:54:49;7.30;98.00
10702;DHT22;5402;50.004;8.246;2023-03-01T12:57:28;7.30;97.80
10702;DHT22;5402;50.004;8.246;2023-03-01T13:00:16;7.40;97.80
10702;DHT22;5402;50.004;8.246;2023-03-01T13:02:48;7.40;97.40
10702;DHT22;5402;50.004;8.246;2023-03-01T13:05:24;7.50;97.60
10702;DHT22;5402;50.004;8.246;2023-03-01T13:07:58;7.50;97.30
10702;DHT22;5402;50.004;8.246;2023-03-01T13:10:33;7.60;97.50
10702;DHT22;5402;50.004;8.246;2023-03-01T13:13:07;7.70;97.70
10702;DHT22;5402;50.004;8.246;2023-03-01T13:15:40;7.60;97.50
10702;DHT22;5402;50.004;8.246;2023-03-01T13:18:30;7.70;97.50
10702;DHT22;5402;50.004;8.246;2023-03-01T13:20:59;7.80;97.30
10702;DHT22;5402;50.004;8.246;2023-03-01T13:23:29;7.80;97.00
10702;DHT22;5402;50.004;8.246;2023-03-01T13:26:15;7.80;97.00
10702;DHT22;5402;50.004;8.246;2023-03-01T13:29:00;8.00;96.70
10702;DHT22;5402;50.004;8.246;2023-03-01T13:31:58;8.00;96.60
10702;DHT22;5402;50.004;8.246;2023-03-01T13:34:45;8.20;96.70
10702;DHT22;5402;50.004;8.246;2023-03-01T13:37:21;8.00;96.40
10702;DHT22;5402;50.004;8.246;2023-03-01T13:39:48;8.10;96.10
10702;DHT22;5402;50.004;8.246;2023-03-01T13:42:36;8.10;96.00
10702;DHT22;5402;50.004;8.246;2023-03-01T13:45:14;8.10;96.20
10702;DHT22;5402;50.004;8.246;2023-03-01T13:47:44;8.10;96.40
10702;DHT22;5402;50.004;8.246;2023-03-01T13:50:19;8.00;96.20
10702;DHT22;5402;50.004;8.246;2023-03-01T13:52:50;8.00;96.40
10702;DHT22;5402;50.004;8.246;2023-03-01T13:55:22;8.10;96.20
10702;DHT22;5402;50.004;8.246;2023-03-01T13:57:53;8.10;96.20
10702;DHT22;5402;50.004;8.246;2023-03-01T14:00:33;8.20;96.50
10702;DHT22;5402;50.004;8.246;2023-03-01T14:03:09;8.30;96.50
10702;DHT22;5402;50.004;8.246;2023-03-01T14:05:37;8.40;96.30
10702;DHT22;5402;50.004;8.246;2023-03-01T14:08:05;8.40;96.50
10702;DHT22;5402;50.004;8.246;2023-03-01T14:10:39;8.40;96.50
10702;DHT22;5402;50.004;8.246;2023-03-01T14:13:24;8.50;96.10
10702;DHT22;5402;50.004;8.246;2023-03-01T14:16:07;8.40;96.40
10702;DHT22;5402;50.004;8.246;2023-03-01T14:18:44;8.50;96.10
10702;DHT22;5402;50.004;8.246;2023-03-01T14:21:14;8.50;96.50
10702;DHT22;5402;50.004;8.246;2023-03-01T14:23:42;8.50;96.20
10702;DHT22;5402;50.004;8.246;2023-03-01T14:26:09;8.50;96.20
10702;DHT22;5402;50.004;8.246;2023-03-01T14:28:38;8.60;96.30
10702;DHT22;5402;50.004;8.246;2023-03-01T14:31:31;8.40;96.20
10702;DHT22;5402;50.004;8.246;2023-03-01T14:34:01;8.40;96.10
10702;DHT22;5402;50.004;8.246;2023-03-01T14:36:30;8.40;96.00
10702;DHT22;5402;50.004;8.246;2023-03-01T14:38:57;8.30;96.00
10702;DHT22;5402;50.004;8.246;2023-03-01T14:41:32;8.30;96.00
10702;DHT22;5402;50.004;8.246;2023-03-01T14:44:02;8.30;96.40
10702;DHT22;5402;50.004;8.246;2023-03-01T14:46:32;8.30;96.40
10702;DHT22;5402;50.004;8.246;2023-03-01T14:49:04;8.30;96.20
10702;DHT22;5402;50.004;8.246;2023-03-01T14:51:36;8.30;96.10
10702;DHT22;5402;50.004;8.246;2023-03-01T14:54:05;8.20;96.30
10702;DHT22;5402;50.004;8.246;2023-03-01T14:56:44;8.30;96.20
10702;DHT22;5402;50.004;8.246;2023-03-01T14:59:11;8.30;96.50
10702;DHT22;5402;50.004;8.246;2023-03-01T15:01:39;8.30;96.20
10702;DHT22;5402;50.004;8.246;2023-03-01T15:04:11;8.40;96.10
10702;DHT22;5402;50.004;8.246;2023-03-01T15:06:39;8.30;96.00
10702;DHT22;5402;50.004;8.246;2023-03-01T15:09:06;8.40;96.00
10702;DHT22;5402;50.004;8.246;2023-03-01T15:11:34;8.40;96.10
10702;DHT22;5402;50.004;8.246;2023-03-01T15:14:25;8.40;96.00
10702;DHT22;5402;50.004;8.246;2023-03-01T15:16:52;8.40;95.60
10702;DHT22;5402;50.004;8.246;2023-03-01T15:19:22;8.50;95.60
10702;DHT22;5402;50.004;8.246;2023-03-01T15:21:50;8.40;95.90
10702;DHT22;5402;50.004;8.246;2023-03-01T15:24:20;8.40;96.10
10702;DHT22;5402;50.004;8.246;2023-03-01T15:26:52;8.40;96.30
10702;DHT22;5402;50.004;8.246;2023-03-01T15:29:23;8.40;96.10
10702;DHT22;5402;50.004;8.246;2023-03-01T15:31:57;8.50;95.90
10702;DHT22;5402;50.004;8.246;2023-03-01T15:34:27;8.50;95.80
10702;DHT22;5402;50.004;8.246;2023-03-01T15:36:56;8.40;95.70
10702;DHT22;5402;50.004;8.246;2023-03-01T15:39:33;8.40;95.50
10702;DHT22;5402;50.004;8.246;2023-03-01T15:42:03;8.30;95.60
10702;DHT22;5402;50.004;8.246;2023-03-01T15:44:33;8.30;95.50
10702;DHT22;5402;50.004;8.246;2023-03-01T15:47:00;8.20;95.50
10702;DHT22;5402;50.004;8.246;2023-03-01T15:49:35;8.00;95.60
10702;DHT22;5402;50.004;8.246;2023-03-01T15:52:05;8.20;95.80
10702;DHT22;5402;50.004;8.246;2023-03-01T15:54:35;8.10;96.00
10702;DHT22;5402;50.004;8.246;2023-03-01T15:57:03;8.00;96.20
10702;DHT22;5402;50.004;8.246;2023-03-01T15:59:30;8.00;96.30
10702;DHT22;5402;50.004;8.246;2023-03-01T16:01:57;8.10;96.20
10702;DHT22;5402;50.004;8.246;2023-03-01T16:04:23;8.10;96.30
10702;DHT22;5402;50.004;8.246;2023-03-01T16:06:53;8.10;96.30
10702;DHT22;5402;50.004;8.246;2023-03-01T16:09:22;8.10;96.10
10702;DHT22;5402;50.004;8.246;2023-03-01T16:11:50;8.10;96.10
10702;DHT22;5402;50.004;8.246;2023-03-01T16:14:17;8.10;96.00
10702;DHT22;5402;50.004;8.246;2023-03-01T16:16:44;8.00;96.10
10702;DHT22;5402;50.004;8.246;2023-03-01T16:19:10;7.90;96.40
10702;DHT22;5402;50.004;8.246;2023-03-01T16:21:37;8.00;96.40
10702;DHT22;5402;50.004;8.246;2023-03-01T16:24:06;7.80;96.60